Time;durP1;ratioP1;P1;durP2;ratioP2;P2;SDS_P1;SDS_P2;PMS_P1;PMS_P2;Temp;Humidity;BMP_temperature;BMP_pressure;BME280_temperature;BME280_humidity;BME280_pressure;Samples;Min_cycle;Max_cycle;Signal;HPM_P1;HPM_P2
2022/01/16 00:04:27;;;;;;;221.70;33.30;;;1.00;97.20;;;;;;5094489;28;20053;-85
2022/01/16 00:06:54;;;;;;;189.45;33.75;;;1.10;97.20;;;;;;5094065;28;20136;-85
2022/01/16 00:09:21;;;;;;;166.55;31.30;;;1.10;97.10;;;;;;5101604;28;20056;-85
2022/01/16 00:11:48;;;;;;;264.27;36.83;;;1.00;97.10;;;;;;5094997;27;20048;-85
2022/01/16 00:14:15;;;;;;;157.93;34.88;;;1.10;97.10;;;;;;5093368;28;20130;-85
2022/01/16 00:16:41;;;;;;;192.60;33.65;;;1.10;97.10;;;;;;5091623;28;20044;-85
2022/01/16 00:19:09;;;;;;;159.00;32.08;;;1.10;97.10;;;;;;5100414;28;20052;-85
2022/01/16 00:21:39;;;;;;;133.82;31.63;;;1.10;97.10;;;;;;5102269;28;20063;-85
2022/01/16 00:24:07;;;;;;;139.25;33.03;;;1.10;97.00;;;;;;5099584;28;20126;-85
2022/01/16 00:26:35;;;;;;;196.40;33.22;;;1.10;97.00;;;;;;5107687;28;20128;-85
2022/01/16 00:29:10;;;;;;;158.05;32.22;;;1.10;97.00;;;;;;5095848;28;20053;-85
2022/01/16 00:31:40;;;;;;;192.30;33.53;;;1.10;97.10;;;;;;5094034;28;20495;-85
2022/01/16 00:34:09;;;;;;;139.73;33.35;;;1.10;97.00;;;;;;5096485;28;20763;-85
2022/01/16 00:36:38;;;;;;;266.52;35.28;;;1.10;97.10;;;;;;5092755;28;20052;-85
2022/01/16 00:39:05;;;;;;;172.68;32.90;;;1.10;97.10;;;;;;5096341;28;20048;-85
2022/01/16 00:41:35;;;;;;;141.20;33.38;;;1.10;97.10;;;;;;5097484;28;20806;-85
2022/01/16 00:44:02;;;;;;;159.45;31.42;;;1.10;97.10;;;;;;5100650;27;20048;-85
2022/01/16 00:46:29;;;;;;;227.52;34.30;;;1.20;97.00;;;;;;5092140;28;20943;-85
2022/01/16 00:48:56;;;;;;;148.23;32.47;;;1.20;97.10;;;;;;5095546;28;20480;-85
2022/01/16 00:51:23;;;;;;;286.65;36.83;;;1.10;96.90;;;;;;5098972;28;20401;-86
2022/01/16 00:53:50;;;;;;;132.52;31.90;;;1.10;97.00;;;;;;5100508;27;20068;-86
2022/01/16 00:56:17;;;;;;;252.90;36.28;;;1.10;97.10;;;;;;5092446;28;20056;-85
2022/01/16 00:58:44;;;;;;;169.93;33.10;;;1.00;97.20;;;;;;5098207;27;20499;-86
2022/01/16 01:01:13;;;;;;;289.45;37.85;;;1.10;97.30;;;;;;5095179;28;20102;-85
2022/01/16 01:03:40;;;;;;;246.50;37.33;;;1.10;97.40;;;;;;5097920;28;20083;-85
2022/01/16 01:06:07;;;;;;;152.35;32.17;;;1.10;97.40;;;;;;5102778;27;20802;-85
2022/01/16 01:08:34;;;;;;;161.70;33.50;;;1.10;97.30;;;;;;5098837;28;20778;-85
2022/01/16 01:11:05;;;;;;;145.35;31.25;;;1.10;97.40;;;;;;5092356;28;20139;-85
2022/01/16 01:13:44;;;;;;;166.98;33.55;;;1.20;97.40;;;;;;5093801;28;20045;-85
2022/01/16 01:16:15;;;;;;;219.30;35.65;;;1.10;97.30;;;;;;5098362;28;20067;-85
2022/01/16 01:18:44;;;;;;;223.30;34.65;;;1.20;97.30;;;;;;5096341;28;20143;-85
2022/01/16 01:21:23;;;;;;;177.38;33.78;;;1.20;97.30;;;;;;5092017;28;20045;-84
2022/01/16 01:23:50;;;;;;;230.82;36.03;;;1.10;97.30;;;;;;5093467;28;20168;-85
2022/01/16 01:26:17;;;;;;;222.75;35.17;;;1.10;97.30;;;;;;5098496;28;20048;-85
2022/01/16 01:28:44;;;;;;;242.95;36.28;;;1.10;97.40;;;;;;5099178;28;20158;-85
2022/01/16 01:31:14;;;;;;;220.60;34.80;;;1.20;97.40;;;;;;5099651;28;20053;-85
2022/01/16 01:33:41;;;;;;;191.30;33.40;;;1.10;97.40;;;;;;5097099;28;20139;-85
2022/01/16 01:36:08;;;;;;;183.13;35.20;;;1.20;97.40;;;;;;5102900;27;20133;-85
2022/01/16 01:38:35;;;;;;;237.75;36.10;;;1.20;97.50;;;;;;5105144;28;20500;-85
2022/01/16 01:41:03;;;;;;;221.38;33.65;;;1.20;97.50;;;;;;5101309;28;20205;-85
2022/01/16 01:51:49;;;;;;;198.77;35.08;;;1.10;97.50;;;;;;5044196;28;20049;-85
2022/01/16 01:54:16;;;;;;;208.65;33.92;;;1.10;97.50;;;;;;5045966;28;20060;-85
2022/01/16 01:56:44;;;;;;;226.68;36.25;;;1.10;97.70;;;;;;5046073;28;20556;-86
2022/01/16 01:59:14;;;;;;;141.35;31.70;;;1.20;97.60;;;;;;5047317;28;20065;-85
2022/01/16 02:01:41;;;;;;;280.42;39.80;;;1.20;97.70;;;;;;5036122;28;20236;-86
2022/01/16 02:04:07;;;;;;;125.20;31.35;;;1.20;97.70;;;;;;5040751;28;20512;-85
2022/01/16 02:06:34;;;;;;;176.73;32.88;;;1.20;97.70;;;;;;5044652;28;20060;-85
2022/01/16 02:09:10;;;;;;;139.98;30.60;;;1.20;97.70;;;;;;5040664;28;20049;-85
2022/01/16 02:11:39;;;;;;;139.45;32.08;;;1.30;97.70;;;;;;5041316;28;20579;-86
2022/01/16 02:14:26;;;;;;;180.80;33.95;;;1.30;97.60;;;;;;5042309;28;20848;-85
2022/01/16 02:28:19;;;;;;;189.10;33.83;;;1.30;97.70;;;;;;5058840;28;20465;-85
2022/01/16 02:36:01;;;;;;;191.43;34.28;;;1.30;97.70;;;;;;5094204;28;20162;-85
2022/01/16 02:38:28;;;;;;;185.23;33.03;;;1.20;97.60;;;;;;5095921;28;20123;-85
2022/01/16 02:40:59;;;;;;;228.57;36.38;;;1.30;97.70;;;;;;5100140;28;20853;-86
2022/01/16 02:43:31;;;;;;;291.85;36.47;;;1.30;97.80;;;;;;5097678;27;20059;-85
2022/01/16 02:48:43;;;;;;;276.15;39.25;;;1.30;97.80;;;;;;5101937;28;20063;-85
2022/01/16 02:51:14;;;;;;;282.33;38.55;;;1.30;97.80;;;;;;5102236;27;20056;-85
2022/01/16 02:53:41;;;;;;;163.75;33.55;;;1.30;97.80;;;;;;5100824;28;20049;-85
2022/01/16 02:56:08;;;;;;;168.02;33.30;;;1.40;97.80;;;;;;5102492;28;20143;-85
2022/01/16 02:58:34;;;;;;;322.52;40.65;;;1.50;97.90;;;;;;5099694;27;20176;-85
2022/01/16 03:01:03;;;;;;;337.58;39.53;;;1.40;97.80;;;;;;5094264;28;20422;-86
2022/01/16 03:03:30;;;;;;;211.73;34.00;;;1.40;97.80;;;;;;5099408;28;20106;-85
2022/01/16 03:05:57;;;;;;;165.80;33.97;;;1.40;97.90;;;;;;5101188;27;20080;-85
2022/01/16 03:08:24;;;;;;;330.60;36.50;;;1.50;97.90;;;;;;5094253;28;20055;-85
2022/01/16 03:11:08;;;;;;;210.30;34.15;;;1.50;97.80;;;;;;5101639;28;20049;-86
2022/01/16 03:13:46;;;;;;;272.90;36.47;;;1.50;97.80;;;;;;5093787;28;20084;-86
2022/01/16 03:16:18;;;;;;;311.98;39.95;;;1.50;97.70;;;;;;5107880;28;20814;-85
2022/01/16 03:24:17;;;;;;;224.80;35.28;;;1.50;97.80;;;;;;5098692;28;20080;-86
2022/01/16 03:26:43;;;;;;;247.73;36.75;;;1.50;97.70;;;;;;5097738;28;20849;-85
2022/01/16 03:29:10;;;;;;;408.65;41.47;;;1.50;97.80;;;;;;5099448;28;20048;-86
2022/01/16 03:31:37;;;;;;;270.67;35.80;;;1.50;97.90;;;;;;5098744;28;20060;-85
2022/01/16 03:34:04;;;;;;;184.27;33.85;;;1.50;97.80;;;;;;5099302;28;20048;-85
2022/01/16 03:36:31;;;;;;;283.02;39.05;;;1.50;97.80;;;;;;5092354;28;20149;-85
2022/01/16 03:38:58;;;;;;;280.58;39.03;;;1.50;97.90;;;;;;5098091;28;20052;-86
2022/01/16 03:41:27;;;;;;;367.35;41.25;;;1.50;98.00;;;;;;5096029;28;20052;-85
2022/01/16 03:44:01;;;;;;;383.85;40.70;;;1.60;98.00;;;;;;5100928;28;20110;-85
2022/01/16 03:46:34;;;;;;;373.65;39.38;;;1.60;97.90;;;;;;5099889;28;20055;-86
2022/01/16 03:49:07;;;;;;;186.85;34.85;;;1.60;97.90;;;;;;5101386;28;20051;-86
2022/01/16 03:51:36;;;;;;;202.30;34.95;;;1.60;97.90;;;;;;5096144;28;20063;-85
2022/01/16 03:54:07;;;;;;;307.25;38.17;;;1.50;97.90;;;;;;5083040;28;20510;-84
2022/01/16 03:56:35;;;;;;;296.33;36.70;;;1.60;98.00;;;;;;5095242;27;20102;-85
2022/01/16 03:59:05;;;;;;;219.35;35.97;;;1.60;98.00;;;;;;5096624;28;20081;-86
2022/01/16 04:01:34;;;;;;;221.60;37.13;;;1.60;98.00;;;;;;5096852;28;20060;-85
2022/01/16 04:04:04;;;;;;;324.02;39.08;;;1.60;97.90;;;;;;5101398;28;20083;-85
2022/01/16 04:06:31;;;;;;;184.40;36.85;;;1.60;98.00;;;;;;5098536;28;20857;-85
2022/01/16 04:08:59;;;;;;;235.20;38.05;;;1.70;97.90;;;;;;5098914;28;20054;-85
2022/01/16 04:11:28;;;;;;;170.73;33.10;;;1.70;98.00;;;;;;5095395;28;20062;-85
2022/01/16 04:14:23;;;;;;;186.35;34.17;;;1.70;98.00;;;;;;5099214;28;20899;-86
2022/01/16 04:16:43;;;;;;;186.93;35.10;;;1.70;98.00;;;;;;5099363;28;20049;-85
2022/01/16 04:19:10;;;;;;;259.75;37.85;;;1.70;98.00;;;;;;5101701;28;20134;-85
2022/01/16 04:21:41;;;;;;;328.05;41.65;;;1.70;98.00;;;;;;5097564;28;20040;-85
2022/01/16 04:24:10;;;;;;;221.68;35.50;;;1.70;98.00;;;;;;5103468;28;20048;-86
2022/01/16 04:26:38;;;;;;;178.23;35.38;;;1.70;98.00;;;;;;5102930;28;20052;-85
2022/01/16 04:29:04;;;;;;;233.82;38.40;;;1.70;97.90;;;;;;5111531;28;20063;-86
2022/01/16 04:31:33;;;;;;;228.82;37.25;;;1.80;98.00;;;;;;5119945;28;20028;-85
2022/01/16 04:34:00;;;;;;;269.27;38.97;;;1.80;98.00;;;;;;5106087;27;20052;-85
2022/01/16 04:36:27;;;;;;;211.90;38.47;;;1.80;97.90;;;;;;5101744;28;20048;-86
2022/01/16 04:38:55;;;;;;;175.90;36.85;;;1.80;97.90;;;;;;5104520;28;20096;-85
2022/01/16 04:44:08;;;;;;;180.50;37.05;;;1.80;97.90;;;;;;5112107;28;20044;-85
2022/01/16 04:46:35;;;;;;;181.05;37.65;;;1.80;97.80;;;;;;5095864;28;20396;-85
2022/01/16 04:49:04;;;;;;;164.68;35.60;;;1.80;98.00;;;;;;5095965;28;20061;-85
2022/01/16 04:51:32;;;;;;;167.95;37.00;;;1.80;97.80;;;;;;5098377;28;20049;-86
2022/01/16 04:54:01;;;;;;;224.82;39.83;;;1.80;97.90;;;;;;5097473;28;20053;-85
2022/01/16 04:56:27;;;;;;;236.98;40.95;;;1.80;97.90;;;;;;5098281;27;20503;-85
2022/01/16 04:58:54;;;;;;;188.60;39.85;;;1.80;97.90;;;;;;5099662;27;20055;-85
2022/01/16 05:01:22;;;;;;;260.05;43.78;;;1.90;97.90;;;;;;5101602;27;20051;-85
2022/01/16 05:03:49;;;;;;;281.13;44.58;;;1.80;97.90;;;;;;5102125;28;20134;-85
2022/01/16 05:06:15;;;;;;;231.95;44.88;;;1.80;97.90;;;;;;5107799;27;20132;-85
2022/01/16 05:08:42;;;;;;;219.02;44.42;;;1.80;97.90;;;;;;5106003;28;20058;-85
2022/01/16 05:11:11;;;;;;;203.40;43.13;;;1.90;98.00;;;;;;5108971;28;20051;-85
2022/01/16 05:18:55;;;;;;;223.57;47.08;;;1.90;98.10;;;;;;5101267;28;20114;-85
2022/01/16 05:21:21;;;;;;;221.88;45.85;;;1.90;98.10;;;;;;5095628;28;20078;-86
2022/01/16 05:23:50;;;;;;;201.52;45.08;;;1.90;98.10;;;;;;5098110;28;20072;-85
2022/01/16 05:26:19;;;;;;;252.55;50.28;;;2.00;98.10;;;;;;5097905;27;20048;-85
2022/01/16 05:28:46;;;;;;;206.77;47.47;;;1.90;98.10;;;;;;5100254;28;20048;-85
2022/01/16 05:31:13;;;;;;;236.88;48.78;;;2.00;98.20;;;;;;5102544;27;20139;-86
2022/01/16 05:33:40;;;;;;;253.35;49.40;;;2.00;98.20;;;;;;5097712;27;20136;-85
2022/01/16 05:36:06;;;;;;;187.80;46.20;;;2.00;98.10;;;;;;5095675;28;21896;-85
2022/01/16 05:38:33;;;;;;;218.95;47.72;;;2.00;98.10;;;;;;5100906;27;20071;-85
2022/01/16 05:41:00;;;;;;;210.98;47.67;;;2.10;98.10;;;;;;5105726;27;20139;-85
2022/01/16 05:43:26;;;;;;;203.70;48.03;;;2.00;98.10;;;;;;5102501;28;20167;-85
2022/01/16 05:45:53;;;;;;;206.85;47.13;;;2.00;98.10;;;;;;5096717;28;20030;-85
2022/01/16 05:48:20;;;;;;;200.38;47.15;;;2.10;98.00;;;;;;5096723;28;20110;-86
2022/01/16 05:50:47;;;;;;;200.85;47.92;;;2.10;98.00;;;;;;5101966;27;20143;-86
2022/01/16 05:53:14;;;;;;;195.15;46.83;;;2.10;98.00;;;;;;5097116;28;20036;-85
2022/01/16 05:55:41;;;;;;;214.98;48.15;;;2.10;97.90;;;;;;5105316;28;20032;-85
2022/01/16 05:58:09;;;;;;;187.38;48.10;;;2.10;97.90;;;;;;5106868;28;20048;-86
2022/01/16 06:00:38;;;;;;;199.98;48.58;;;2.10;97.80;;;;;;5102643;28;20763;-85
2022/01/16 06:03:06;;;;;;;191.15;48.78;;;2.10;97.90;;;;;;5107629;28;20873;-86
2022/01/16 06:05:33;;;;;;;179.90;47.45;;;2.10;97.80;;;;;;5100875;27;20044;-86
2022/01/16 06:08:06;;;;;;;188.02;47.28;;;2.10;97.80;;;;;;5101985;28;20048;-86
2022/01/16 06:10:33;;;;;;;159.13;45.72;;;2.10;97.70;;;;;;5096849;28;20052;-85
2022/01/16 06:13:02;;;;;;;175.80;46.33;;;2.10;97.70;;;;;;5100732;28;20052;-85
2022/01/16 06:15:28;;;;;;;177.18;49.03;;;2.10;97.60;;;;;;5105259;28;20044;-86
2022/01/16 06:17:58;;;;;;;154.02;46.42;;;2.00;97.60;;;;;;5098992;27;20428;-86
2022/01/16 06:20:25;;;;;;;176.05;46.60;;;2.00;97.60;;;;;;5110613;28;20093;-86
2022/01/16 06:22:53;;;;;;;191.50;46.47;;;2.00;97.60;;;;;;5097087;28;20040;-86
2022/01/16 06:25:29;;;;;;;161.27;46.33;;;2.00;97.60;;;;;;5095295;28;20053;-86
2022/01/16 06:27:58;;;;;;;153.15;47.40;;;2.00;97.60;;;;;;5098299;28;20134;-85
2022/01/16 06:30:25;;;;;;;158.68;46.08;;;2.00;97.60;;;;;;5099866;28;20136;-86
2022/01/16 06:32:52;;;;;;;163.82;45.80;;;2.00;97.50;;;;;;5100185;27;20052;-86
2022/01/16 06:35:19;;;;;;;165.85;46.92;;;2.00;97.40;;;;;;5096047;28;20053;-85
2022/01/16 06:37:48;;;;;;;147.77;43.38;;;1.90;97.50;;;;;;5100675;27;20052;-85
2022/01/16 06:40:15;;;;;;;156.45;45.88;;;1.90;97.40;;;;;;5105264;28;20572;-85
2022/01/16 06:42:42;;;;;;;159.10;45.50;;;1.90;97.40;;;;;;5094661;27;20048;-85
2022/01/16 06:45:13;;;;;;;181.07;47.28;;;1.90;97.40;;;;;;5103096;28;20679;-85
2022/01/16 06:47:40;;;;;;;146.02;44.15;;;1.90;97.40;;;;;;5099552;28;20061;-85
2022/01/16 06:50:08;;;;;;;192.10;48.38;;;1.90;97.40;;;;;;5102051;28;20048;-85
2022/01/16 06:52:35;;;;;;;161.15;47.97;;;1.90;97.40;;;;;;5095070;28;20053;-85
2022/01/16 06:55:04;;;;;;;158.45;46.72;;;1.90;97.50;;;;;;5093565;28;20041;-86
2022/01/16 06:57:31;;;;;;;164.27;47.53;;;1.90;97.50;;;;;;5095352;28;20049;-85
2022/01/16 06:59:57;;;;;;;152.55;45.72;;;1.90;97.40;;;;;;5099387;28;20127;-85
2022/01/16 07:02:24;;;;;;;154.48;46.05;;;1.90;97.40;;;;;;5095446;28;21088;-84
2022/01/16 07:04:51;;;;;;;165.18;47.67;;;1.90;97.40;;;;;;5099985;28;20048;-86
2022/01/16 07:07:19;;;;;;;151.25;45.63;;;1.90;97.40;;;;;;5095372;28;20131;-86
2022/01/16 07:09:46;;;;;;;160.52;47.35;;;1.90;97.40;;;;;;5093907;28;20053;-86
2022/01/16 07:12:13;;;;;;;167.10;47.95;;;1.90;97.40;;;;;;5100431;28;20882;-86
2022/01/16 07:14:39;;;;;;;147.85;44.75;;;1.90;97.40;;;;;;5098078;28;20069;-85
2022/01/16 07:17:09;;;;;;;165.02;44.88;;;1.90;97.40;;;;;;5099144;27;20060;-86
2022/01/16 07:19:38;;;;;;;149.82;45.05;;;1.90;97.40;;;;;;5098719;28;20051;-85
2022/01/16 07:22:05;;;;;;;145.15;44.05;;;1.90;97.40;;;;;;5094981;28;20098;-86
2022/01/16 07:24:32;;;;;;;143.23;44.15;;;1.90;97.40;;;;;;5097123;28;20517;-85
2022/01/16 07:27:00;;;;;;;147.77;44.13;;;1.90;97.40;;;;;;5099429;28;20537;-85
2022/01/16 07:29:28;;;;;;;141.70;45.15;;;1.90;97.40;;;;;;5096965;28;20522;-85
2022/01/16 07:31:58;;;;;;;165.73;45.42;;;1.90;97.40;;;;;;5093454;28;20959;-86
2022/01/16 07:34:26;;;;;;;132.13;44.50;;;2.00;97.40;;;;;;5093297;28;20053;-86
2022/01/16 07:36:53;;;;;;;136.60;44.50;;;1.90;97.40;;;;;;5094915;28;20139;-86
2022/01/16 07:39:20;;;;;;;136.75;44.67;;;2.00;97.50;;;;;;5105024;28;20131;-85
2022/01/16 07:41:46;;;;;;;132.38;42.95;;;2.00;97.50;;;;;;5095345;27;20052;-86
2022/01/16 07:44:15;;;;;;;132.32;44.00;;;2.00;97.40;;;;;;5094012;28;20084;-86
2022/01/16 07:46:42;;;;;;;129.63;42.85;;;2.00;97.50;;;;;;5095084;28;20053;-85
2022/01/16 07:49:09;;;;;;;120.18;42.00;;;2.00;97.60;;;;;;5107307;28;20052;-86
2022/01/16 07:51:36;;;;;;;116.00;41.17;;;2.00;97.60;;;;;;5098292;27;20076;-85
2022/01/16 07:54:02;;;;;;;104.45;38.65;;;2.10;97.60;;;;;;5104963;28;20050;-86
2022/01/16 07:56:29;;;;;;;102.43;38.80;;;2.10;97.60;;;;;;5094734;27;20044;-85
2022/01/16 07:58:56;;;;;;;116.97;40.03;;;2.20;97.70;;;;;;5100827;28;20131;-85
2022/01/16 08:01:40;;;;;;;;;;;2.20;97.60;;;;;;5099632;27;20067;-86
2022/01/16 08:04:07;;;;;;;101.28;38.92;;;2.30;97.60;;;;;;5094086;28;19935;-85
2022/01/16 08:06:34;;;;;;;92.22;38.78;;;2.30;97.60;;;;;;5102535;28;20067;-85
2022/01/16 08:09:01;;;;;;;103.85;38.70;;;2.30;97.70;;;;;;5097510;28;20051;-86
2022/01/16 08:11:30;;;;;;;110.35;38.80;;;2.40;97.60;;;;;;5097645;28;20044;-86
2022/01/16 08:14:02;;;;;;;100.30;38.95;;;2.40;97.60;;;;;;5095647;28;20053;-85
2022/01/16 08:16:31;;;;;;;98.60;36.45;;;2.50;97.60;;;;;;5098749;27;20168;-86
2022/01/16 08:18:57;;;;;;;83.68;33.72;;;2.50;97.50;;;;;;5100800;28;20056;-86
2022/01/16 08:21:24;;;;;;;90.70;35.40;;;2.50;97.50;;;;;;5099375;28;20052;-85
2022/01/16 08:23:51;;;;;;;91.38;34.78;;;2.60;97.40;;;;;;5099409;28;20057;-86
2022/01/16 08:26:18;;;;;;;76.07;33.25;;;2.60;97.50;;;;;;5100404;28;20056;-86
2022/01/16 08:28:45;;;;;;;78.93;32.88;;;2.70;97.30;;;;;;5097549;27;20058;-85
2022/01/16 08:31:14;;;;;;;86.60;33.15;;;2.70;97.30;;;;;;5095371;28;20044;-85
2022/01/16 08:33:41;;;;;;;86.10;32.58;;;2.70;97.30;;;;;;5105896;28;20059;-85
2022/01/16 08:36:08;;;;;;;62.33;28.02;;;2.80;97.30;;;;;;5101569;28;20056;-85
2022/01/16 08:38:37;;;;;;;68.82;29.00;;;2.80;97.20;;;;;;5095507;28;20056;-85
2022/01/16 08:41:04;;;;;;;64.38;28.85;;;2.90;97.30;;;;;;5101549;28;20143;-85
2022/01/16 08:43:31;;;;;;;64.50;28.20;;;2.90;97.10;;;;;;5096531;28;20084;-85
2022/01/16 08:45:58;;;;;;;67.20;29.55;;;3.00;97.10;;;;;;5103680;27;20049;-85
2022/01/16 08:48:26;;;;;;;59.50;28.95;;;3.00;97.10;;;;;;5103384;27;20048;-85
2022/01/16 08:50:53;;;;;;;63.75;27.65;;;3.00;97.10;;;;;;5095302;28;20135;-85
2022/01/16 08:53:20;;;;;;;58.63;26.48;;;3.10;97.00;;;;;;5092608;28;20054;-85
2022/01/16 08:55:47;;;;;;;69.97;27.40;;;3.10;97.00;;;;;;5092735;28;20825;-85
2022/01/16 08:58:14;;;;;;;61.55;27.05;;;3.20;96.80;;;;;;5097941;28;20049;-85
2022/01/16 09:00:45;;;;;;;52.53;25.70;;;3.20;96.80;;;;;;5102751;27;20455;-85
2022/01/16 09:03:13;;;;;;;55.30;24.70;;;3.30;96.70;;;;;;5097463;28;20056;-85
2022/01/16 09:05:41;;;;;;;49.90;23.20;;;3.40;96.70;;;;;;5099852;27;20074;-85
2022/01/16 09:08:14;;;;;;;57.53;25.52;;;3.40;96.60;;;;;;5097941;27;20090;-86
2022/01/16 09:10:41;;;;;;;48.05;23.00;;;3.40;96.60;;;;;;5097581;28;20059;-85
2022/01/16 09:13:15;;;;;;;51.22;23.30;;;3.50;96.60;;;;;;5102284;28;20429;-85
2022/01/16 09:15:48;;;;;;;54.70;23.40;;;3.50;96.40;;;;;;5096605;28;20055;-85
2022/01/16 09:18:19;;;;;;;46.97;24.37;;;3.60;96.30;;;;;;5098577;28;20053;-85
2022/01/16 09:20:49;;;;;;;41.83;21.30;;;3.60;96.10;;;;;;5107056;28;20885;-85
2022/01/16 09:23:15;;;;;;;52.45;22.60;;;3.70;95.80;;;;;;5116637;28;20089;-85
2022/01/16 09:25:45;;;;;;;47.15;22.15;;;3.80;95.80;;;;;;5111296;28;20044;-85
2022/01/16 09:28:16;;;;;;;55.22;23.88;;;3.80;95.80;;;;;;5100000;28;20059;-85
2022/01/16 09:30:43;;;;;;;47.78;22.70;;;3.80;95.70;;;;;;5105740;28;20040;-86
2022/01/16 09:33:10;;;;;;;50.47;22.25;;;3.80;95.70;;;;;;5111505;28;20021;-85
2022/01/16 09:35:37;;;;;;;54.83;22.98;;;3.90;95.70;;;;;;5116589;28;20039;-86
2022/01/16 09:38:06;;;;;;;47.38;22.42;;;3.90;95.60;;;;;;5117173;28;20053;-86
2022/01/16 09:40:34;;;;;;;50.38;23.17;;;4.00;95.50;;;;;;5094808;28;20051;-86
2022/01/16 09:43:03;;;;;;;53.25;24.88;;;4.00;95.50;;;;;;5097784;28;20055;-86
2022/01/16 09:45:31;;;;;;;52.90;25.23;;;4.10;95.60;;;;;;5094056;28;20566;-85
2022/01/16 09:47:58;;;;;;;56.85;25.58;;;4.10;95.70;;;;;;5102540;28;20045;-86
2022/01/16 09:50:26;;;;;;;63.78;26.75;;;4.10;95.70;;;;;;5098452;28;20056;-85
2022/01/16 09:52:54;;;;;;;64.50;26.00;;;4.10;95.70;;;;;;5101981;28;20956;-85
2022/01/16 09:55:21;;;;;;;67.18;26.42;;;4.20;95.70;;;;;;5100850;28;20521;-85
2022/01/16 09:57:57;;;;;;;71.18;27.98;;;4.20;95.80;;;;;;5096939;28;20076;-86
2022/01/16 10:00:24;;;;;;;57.80;25.77;;;4.30;95.80;;;;;;5109996;27;20059;-86
2022/01/16 10:02:51;;;;;;;72.10;28.30;;;4.30;95.60;;;;;;5100740;28;20048;-86
2022/01/16 10:05:35;;;;;;;68.47;28.05;;;4.30;95.50;;;;;;5100138;27;20044;-86
2022/01/16 10:08:11;;;;;;;71.65;28.17;;;4.40;95.50;;;;;;5099318;27;20803;-85
2022/01/16 10:10:42;;;;;;;72.15;28.52;;;4.40;95.50;;;;;;5099606;28;20131;-86
2022/01/16 10:13:20;;;;;;;76.07;28.60;;;4.40;95.50;;;;;;5100426;27;20051;-85
2022/01/16 10:15:56;;;;;;;67.20;29.05;;;4.50;95.40;;;;;;5103487;28;20049;-85
2022/01/16 10:18:43;;;;;;;77.40;29.23;;;4.50;95.10;;;;;;5101048;28;20055;-86
2022/01/16 10:21:10;;;;;;;76.72;29.48;;;4.50;95.20;;;;;;5098683;28;20102;-85
2022/01/16 10:23:42;;;;;;;77.78;30.35;;;4.60;95.20;;;;;;5095254;28;20061;-85
2022/01/16 10:26:19;;;;;;;76.43;30.38;;;4.60;95.20;;;;;;5098437;28;20143;-86
2022/01/16 10:28:47;;;;;;;83.75;32.00;;;4.60;95.10;;;;;;5100645;28;20462;-86
2022/01/16 10:31:20;;;;;;;83.35;32.10;;;4.50;95.00;;;;;;5104198;28;20048;-86
2022/01/16 10:33:46;;;;;;;86.13;32.03;;;4.60;95.00;;;;;;5097089;28;20888;-86
2022/01/16 10:36:30;;;;;;;85.05;31.42;;;4.50;95.00;;;;;;5097370;28;20052;-85
2022/01/16 10:39:09;;;;;;;90.10;32.40;;;4.60;95.00;;;;;;5103851;28;20556;-85
2022/01/16 10:41:37;;;;;;;84.65;32.35;;;4.60;94.90;;;;;;5096034;28;20167;-85
2022/01/16 10:44:29;;;;;;;87.93;32.42;;;4.60;95.00;;;;;;5104177;27;20057;-85
2022/01/16 10:46:57;;;;;;;88.35;32.13;;;4.60;94.90;;;;;;5101168;28;20079;-85
2022/01/16 10:49:28;;;;;;;93.07;31.88;;;4.60;94.90;;;;;;5096913;28;20079;-85
2022/01/16 10:52:06;;;;;;;92.38;33.38;;;4.60;94.90;;;;;;5101878;28;20108;-86
2022/01/16 10:54:40;;;;;;;93.97;33.55;;;4.60;94.80;;;;;;5108338;28;20091;-85
2022/01/16 10:57:26;;;;;;;87.22;32.97;;;4.70;94.80;;;;;;5103707;27;20797;-86
2022/01/16 11:00:21;;;;;;;91.40;32.75;;;4.70;94.80;;;;;;5106728;27;20851;-86
2022/01/16 11:02:51;;;;;;;92.85;32.03;;;4.70;94.90;;;;;;5107827;27;20052;-85
2022/01/16 11:05:21;;;;;;;98.75;32.33;;;4.70;94.60;;;;;;5108791;27;20070;-86
2022/01/16 11:08:00;;;;;;;106.95;34.55;;;4.70;94.50;;;;;;5103123;28;20145;-86
2022/01/16 11:10:30;;;;;;;98.20;33.22;;;4.70;94.80;;;;;;5103932;28;20056;-86
2022/01/16 11:13:01;;;;;;;96.72;33.30;;;4.70;94.60;;;;;;5101293;28;20140;-86
2022/01/16 11:15:29;;;;;;;93.35;33.67;;;4.80;94.80;;;;;;5098481;28;20084;-86
2022/01/16 11:17:57;;;;;;;104.75;34.80;;;4.80;94.80;;;;;;5101080;28;20901;-86
2022/01/16 11:20:31;;;;;;;95.65;33.63;;;4.80;94.60;;;;;;5101053;27;20152;-85
2022/01/16 11:25:33;;;;;;;100.85;34.28;;;4.70;94.20;;;;;;5101159;28;20503;-86
2022/01/16 11:28:12;;;;;;;106.28;35.25;;;4.70;94.40;;;;;;5095221;27;20151;-85
2022/01/16 11:30:47;;;;;;;106.25;33.40;;;4.70;94.40;;;;;;5108076;27;20047;-85
2022/01/16 11:33:21;;;;;;;99.85;33.55;;;4.80;94.70;;;;;;5094739;27;20904;-86
2022/01/16 11:35:57;;;;;;;106.00;33.85;;;4.80;94.40;;;;;;5096346;27;20083;-85
2022/01/16 11:38:30;;;;;;;97.75;31.88;;;4.80;94.40;;;;;;5093662;28;20048;-85
2022/01/16 11:41:03;;;;;;;100.57;32.45;;;4.80;94.50;;;;;;5098155;28;20140;-85
2022/01/16 11:43:34;;;;;;;;;;;4.80;94.40;;;;;;5102909;28;20056;-86
2022/01/16 11:46:22;;;;;;;96.18;31.10;;;4.80;94.10;;;;;;5099081;27;20403;-85
2022/01/16 11:49:03;;;;;;;101.78;32.13;;;4.80;94.10;;;;;;5095799;28;20056;-86
2022/01/16 11:51:36;;;;;;;106.25;32.42;;;4.90;94.00;;;;;;5100923;28;20048;-85
2022/01/16 11:54:26;;;;;;;99.80;32.45;;;4.90;94.00;;;;;;5106597;28;20147;-86
2022/01/16 11:57:18;;;;;;;107.63;33.05;;;4.90;94.10;;;;;;5092692;28;20043;-86
2022/01/16 11:59:48;;;;;;;103.53;33.05;;;4.90;93.90;;;;;;5099447;28;20868;-86
2022/01/16 12:02:24;;;;;;;101.00;33.25;;;4.90;93.90;;;;;;5095582;28;20115;-86
2022/01/16 12:04:54;;;;;;;101.45;33.50;;;4.90;93.70;;;;;;5109301;27;20088;-85
2022/01/16 12:07:20;;;;;;;104.53;35.10;;;4.90;93.90;;;;;;5096150;28;20044;-86
2022/01/16 12:09:50;;;;;;;109.40;35.13;;;4.90;93.90;;;;;;5104068;28;20064;-85
2022/01/16 12:12:17;;;;;;;105.07;33.42;;;5.00;94.00;;;;;;5095272;28;20059;-85
2022/01/16 12:15:01;;;;;;;106.10;35.35;;;5.00;94.00;;;;;;5099491;28;20056;-86
2022/01/16 12:17:51;;;;;;;110.05;32.60;;;5.00;93.90;;;;;;5101418;28;20072;-85
2022/01/16 12:20:18;;;;;;;103.82;33.10;;;5.10;93.90;;;;;;5102257;28;20059;-85
2022/01/16 12:23:08;;;;;;;106.15;32.55;;;5.10;94.10;;;;;;5097095;28;20049;-85
2022/01/16 12:25:50;;;;;;;109.78;35.40;;;5.10;94.00;;;;;;5098214;27;20040;-85
2022/01/16 12:28:25;;;;;;;109.13;34.53;;;5.20;94.00;;;;;;5097253;28;20049;-85
2022/01/16 12:31:03;;;;;;;111.35;35.25;;;5.20;94.10;;;;;;5105757;28;20560;-85
2022/01/16 12:33:53;;;;;;;118.72;35.80;;;5.30;94.20;;;;;;5100380;27;20056;-85
2022/01/16 12:36:30;;;;;;;108.68;34.83;;;5.30;94.20;;;;;;5106732;27;20097;-86
2022/01/16 12:39:10;;;;;;;100.88;33.40;;;5.40;94.20;;;;;;5096943;28;20052;-86
2022/01/16 12:41:57;;;;;;;106.95;33.88;;;5.40;94.00;;;;;;5102087;28;20805;-85
2022/01/16 12:44:39;;;;;;;88.97;32.55;;;5.40;93.90;;;;;;5095417;27;20093;-85
2022/01/16 12:47:05;;;;;;;92.47;34.15;;;5.50;94.00;;;;;;5092064;28;20045;-85
2022/01/16 12:49:35;;;;;;;96.60;32.53;;;5.50;93.90;;;;;;5096597;28;20109;-85
2022/01/16 12:52:04;;;;;;;93.25;32.90;;;5.50;93.90;;;;;;5094030;28;20076;-86
2022/01/16 12:54:34;;;;;;;91.20;34.50;;;5.60;93.50;;;;;;5096880;28;20051;-85
2022/01/16 12:57:02;;;;;;;86.68;32.97;;;5.50;93.50;;;;;;5093210;28;20071;-86
2022/01/16 12:59:44;;;;;;;87.93;30.55;;;5.60;93.50;;;;;;5095120;28;20131;-85
2022/01/16 13:02:12;;;;;;;91.07;32.92;;;5.60;93.40;;;;;;5093402;28;20048;-85
2022/01/16 13:04:45;;;;;;;84.93;32.03;;;5.60;92.90;;;;;;5098892;28;20053;-85
2022/01/16 13:07:37;;;;;;;76.65;30.05;;;5.70;93.10;;;;;;5091631;28;20142;-85
2022/01/16 13:10:04;;;;;;;76.18;30.67;;;5.70;93.20;;;;;;5090091;28;20053;-86
2022/01/16 13:12:31;;;;;;;77.30;29.77;;;5.70;93.00;;;;;;5096097;28;20861;-85
2022/01/16 13:15:01;;;;;;;79.90;29.17;;;5.70;93.00;;;;;;5096175;28;20052;-85
2022/01/16 13:17:32;;;;;;;71.30;28.83;;;5.80;93.00;;;;;;5092258;28;20524;-85
2022/01/16 13:20:02;;;;;;;75.80;29.17;;;5.80;92.70;;;;;;5095018;28;20052;-85
2022/01/16 13:22:37;;;;;;;73.55;29.13;;;5.80;92.90;;;;;;5094774;28;20052;-85
2022/01/16 13:25:19;;;;;;;74.45;30.30;;;5.80;92.60;;;;;;5096597;28;20048;-85
2022/01/16 13:27:53;;;;;;;70.85;29.13;;;5.90;92.80;;;;;;5098435;28;20547;-85
2022/01/16 13:30:25;;;;;;;80.57;31.10;;;5.80;92.00;;;;;;5094504;27;20515;-85
2022/01/16 13:33:07;;;;;;;64.53;28.77;;;5.90;92.30;;;;;;5093562;28;20070;-85